createdAt,value
2018-11-11T00:00:16.337Z,997.46
2018-11-11T00:01:16.304Z,997.48
2018-11-11T00:02:16.278Z,997.50
2018-11-11T00:03:16.277Z,997.53
2018-11-11T00:04:16.290Z,997.53
2018-11-11T00:05:16.270Z,997.58
2018-11-11T00:06:16.251Z,997.60
2018-11-11T00:07:16.242Z,997.55
2018-11-11T00:08:16.228Z,997.56
2018-11-11T00:09:16.236Z,997.56
2018-11-11T00:10:16.221Z,997.57
2018-11-11T00:11:16.209Z,997.55
2018-11-11T00:12:16.197Z,997.49
2018-11-11T00:13:16.191Z,997.50
2018-11-11T00:14:16.184Z,997.52
2018-11-11T00:15:16.183Z,997.51
2018-11-11T00:16:16.164Z,997.45
2018-11-11T00:17:16.159Z,997.45
2018-11-11T00:18:16.152Z,997.37
2018-11-11T00:19:18.668Z,997.37
2018-11-11T00:20:16.137Z,997.36
2018-11-11T00:21:16.132Z,997.37
2018-11-11T00:22:16.123Z,997.44
2018-11-11T00:23:16.120Z,997.42
2018-11-11T00:24:16.103Z,997.38
2018-11-11T00:25:16.102Z,997.39
2018-11-11T00:26:16.097Z,997.40
2018-11-11T00:27:16.123Z,997.38
2018-11-11T00:28:16.122Z,997.34
2018-11-11T00:29:16.064Z,997.40
2018-11-11T00:30:17.678Z,997.48
2018-11-11T00:31:16.052Z,997.46
2018-11-11T00:32:17.689Z,997.43
2018-11-11T00:33:16.058Z,997.41
2018-11-11T00:34:16.027Z,997.40
2018-11-11T00:35:16.092Z,997.40
2018-11-11T00:36:16.051Z,997.42
2018-11-11T00:37:15.999Z,997.41
2018-11-11T00:38:16.001Z,997.42
2018-11-11T00:39:15.990Z,997.42
2018-11-11T00:40:16.000Z,997.44
2018-11-11T00:41:15.974Z,997.38
2018-11-11T00:42:15.967Z,997.37
2018-11-11T00:43:15.966Z,997.38
2018-11-11T00:44:25.161Z,997.32
2018-11-11T00:46:10.307Z,997.37
2018-11-11T00:47:09.653Z,997.40
2018-11-11T00:49:03.518Z,997.38
2018-11-11T00:50:03.417Z,997.32
2018-11-11T00:51:57.396Z,997.32
2018-11-11T00:52:57.822Z,997.32
2018-11-11T00:54:50.970Z,997.35
2018-11-11T00:55:50.718Z,997.41
2018-11-11T00:57:46.997Z,997.35
2018-11-11T00:58:44.414Z,997.36
2018-11-11T01:00:38.080Z,997.34
2018-11-11T01:01:38.021Z,997.34
2018-11-11T01:03:31.748Z,997.26
2018-11-11T01:04:31.710Z,997.26
2018-11-11T01:06:25.743Z,997.28
2018-11-11T01:07:25.398Z,997.29
2018-11-11T01:08:25.363Z,997.35
2018-11-11T01:09:25.418Z,997.34
2018-11-11T01:10:25.299Z,997.30
2018-11-11T01:11:25.275Z,997.32
2018-11-11T01:12:25.332Z,997.27
2018-11-11T01:13:25.257Z,997.27
2018-11-11T01:14:25.253Z,997.20
2018-11-11T01:15:25.243Z,997.25
2018-11-11T01:16:25.261Z,997.22
2018-11-11T01:17:25.225Z,997.23
2018-11-11T01:18:25.232Z,997.25
2018-11-11T01:19:25.219Z,997.23
2018-11-11T01:20:25.203Z,997.18
2018-11-11T01:21:25.193Z,997.26
2018-11-11T01:22:25.206Z,997.27
2018-11-11T01:23:25.173Z,997.36
2018-11-11T01:24:25.169Z,997.27
2018-11-11T01:25:25.183Z,997.29
2018-11-11T01:26:25.151Z,997.31
2018-11-11T01:27:25.152Z,997.40
2018-11-11T01:28:25.139Z,997.33
2018-11-11T01:29:25.139Z,997.40
2018-11-11T01:30:25.658Z,997.40
2018-11-11T01:31:25.154Z,997.44
2018-11-11T01:32:25.126Z,997.42
2018-11-11T01:33:25.123Z,997.43
2018-11-11T01:34:25.095Z,997.39
2018-11-11T01:35:25.084Z,997.35
2018-11-11T01:36:25.088Z,997.42
2018-11-11T01:37:25.064Z,997.46
2018-11-11T01:38:25.064Z,997.47
2018-11-11T01:39:25.055Z,997.52
2018-11-11T01:40:25.055Z,997.45
2018-11-11T01:41:25.034Z,997.48
2018-11-11T01:42:25.042Z,997.55
2018-11-11T01:43:25.022Z,997.50
2018-11-11T01:44:25.008Z,997.55
2018-11-11T01:45:25.020Z,997.57
2018-11-11T01:46:24.996Z,997.58
2018-11-11T01:47:25.010Z,997.63
2018-11-11T01:48:24.983Z,997.59
2018-11-11T01:49:24.967Z,997.51
2018-11-11T01:50:24.963Z,997.63
2018-11-11T01:51:24.956Z,997.61
2018-11-11T01:52:24.947Z,997.58
2018-11-11T01:53:24.954Z,997.59
2018-11-11T01:54:24.944Z,997.58
2018-11-11T01:55:24.932Z,997.62
2018-11-11T01:56:24.935Z,997.54
2018-11-11T01:57:24.903Z,997.58
2018-11-11T01:58:24.894Z,997.59
2018-11-11T01:59:24.888Z,997.58
2018-11-11T02:00:24.897Z,997.61
2018-11-11T02:01:24.868Z,997.62
2018-11-11T02:02:24.867Z,997.58
2018-11-11T02:03:24.858Z,997.63
2018-11-11T02:04:24.845Z,997.61
2018-11-11T02:05:24.846Z,997.61
2018-11-11T02:06:24.840Z,997.64
2018-11-11T02:07:24.852Z,997.62
2018-11-11T02:08:24.814Z,997.69
2018-11-11T02:09:24.817Z,997.64
2018-11-11T02:10:24.810Z,997.67
2018-11-11T02:11:24.784Z,997.73
2018-11-11T02:12:24.794Z,997.68
2018-11-11T02:13:24.777Z,997.63
2018-11-11T02:14:24.778Z,997.65
2018-11-11T02:15:24.758Z,997.66
2018-11-11T02:16:24.757Z,997.57
2018-11-11T02:17:24.742Z,997.64
2018-11-11T02:18:24.731Z,997.59
2018-11-11T02:19:24.743Z,997.58
2018-11-11T02:20:24.723Z,997.54
2018-11-11T02:21:24.723Z,997.54
2018-11-11T02:22:24.702Z,997.51
2018-11-11T02:23:24.705Z,997.45
2018-11-11T02:24:24.681Z,997.47
2018-11-11T02:25:24.677Z,997.46
2018-11-11T02:26:24.675Z,997.47
2018-11-11T02:27:24.672Z,997.37
2018-11-11T02:28:24.706Z,997.39
2018-11-11T02:29:24.649Z,997.37
2018-11-11T02:30:24.635Z,997.39
2018-11-11T02:31:24.624Z,997.34
2018-11-11T02:32:24.614Z,997.34
2018-11-11T02:33:24.613Z,997.33
2018-11-11T02:34:24.621Z,997.37
2018-11-11T02:35:24.595Z,997.35
2018-11-11T02:36:24.588Z,997.30
2018-11-11T02:37:24.599Z,997.30
2018-11-11T02:38:24.567Z,997.30
2018-11-11T02:39:24.557Z,997.31
2018-11-11T02:40:24.561Z,997.33
2018-11-11T02:41:24.553Z,997.32
2018-11-11T02:42:24.534Z,997.41
2018-11-11T02:43:24.533Z,997.33
2018-11-11T02:44:24.539Z,997.30
2018-11-11T02:45:24.510Z,997.35
2018-11-11T02:46:24.500Z,997.34
2018-11-11T02:47:24.504Z,997.27
2018-11-11T02:48:24.494Z,997.35
2018-11-11T02:49:24.478Z,997.37
2018-11-11T02:50:24.481Z,997.38
2018-11-11T02:51:24.488Z,997.43
2018-11-11T02:52:24.451Z,997.43
2018-11-11T02:53:24.452Z,997.38
2018-11-11T02:54:24.455Z,997.37
2018-11-11T02:55:24.430Z,997.34
2018-11-11T02:56:24.445Z,997.33
2018-11-11T02:57:24.412Z,997.36
2018-11-11T02:58:24.402Z,997.35
2018-11-11T02:59:24.399Z,997.35
2018-11-11T03:00:24.400Z,997.37
2018-11-11T03:01:24.378Z,997.34
2018-11-11T03:02:24.367Z,997.38
2018-11-11T03:03:24.360Z,997.39
2018-11-11T03:04:24.435Z,997.35
2018-11-11T03:05:24.347Z,997.35
2018-11-11T03:06:24.339Z,997.39
2018-11-11T03:07:24.328Z,997.37
2018-11-11T03:08:24.338Z,997.36
2018-11-11T03:09:24.313Z,997.38
2018-11-11T03:10:24.308Z,997.38
2018-11-11T03:11:24.298Z,997.35
2018-11-11T03:12:24.286Z,997.35
2018-11-11T03:13:24.280Z,997.29
2018-11-11T03:14:24.274Z,997.28
2018-11-11T03:15:24.271Z,997.26
2018-11-11T03:16:24.255Z,997.26
2018-11-11T03:17:24.257Z,997.25
2018-11-11T03:18:24.240Z,997.24
2018-11-11T03:19:24.230Z,997.25
2018-11-11T03:20:24.215Z,997.28
2018-11-11T03:21:24.223Z,997.26
2018-11-11T03:22:24.230Z,997.26
2018-11-11T03:23:24.232Z,997.32
2018-11-11T03:24:24.690Z,997.33
2018-11-11T03:25:24.193Z,997.30
2018-11-11T03:26:24.171Z,997.33
2018-11-11T03:27:24.183Z,997.42
2018-11-11T03:28:24.699Z,997.35
2018-11-11T03:29:24.167Z,997.45
2018-11-11T03:30:24.177Z,997.35
2018-11-11T03:31:24.148Z,997.35
2018-11-11T03:32:24.129Z,997.30
2018-11-11T03:33:24.117Z,997.29
2018-11-11T03:34:24.126Z,997.26
2018-11-11T03:35:24.114Z,997.27
2018-11-11T03:36:24.087Z,997.28
2018-11-11T03:37:24.091Z,997.30
2018-11-11T03:38:24.092Z,997.29
2018-11-11T03:39:24.074Z,997.43
2018-11-11T03:40:24.064Z,997.32
2018-11-11T03:41:24.088Z,997.36
2018-11-11T03:42:24.131Z,997.33
2018-11-11T03:43:24.056Z,997.36
2018-11-11T03:44:24.042Z,997.36
2018-11-11T03:45:24.007Z,997.33
2018-11-11T03:46:24.000Z,997.29
2018-11-11T03:47:24.000Z,997.30
2018-11-11T03:48:24.007Z,997.35
2018-11-11T03:49:23.996Z,997.42
2018-11-11T03:50:23.997Z,997.44
2018-11-11T03:51:23.970Z,997.54
2018-11-11T03:52:23.953Z,997.50
2018-11-11T03:53:23.943Z,997.49
2018-11-11T03:54:23.943Z,997.49
2018-11-11T03:55:23.948Z,997.46
2018-11-11T03:56:23.937Z,997.38
2018-11-11T03:57:23.958Z,997.42
2018-11-11T03:58:23.909Z,997.44
2018-11-11T03:59:23.899Z,997.45
2018-11-11T04:00:23.889Z,997.49
2018-11-11T04:01:23.898Z,997.44
2018-11-11T04:02:23.899Z,997.44
2018-11-11T04:03:23.862Z,997.45
2018-11-11T04:04:23.913Z,997.49
2018-11-11T04:05:23.854Z,997.41
2018-11-11T04:06:23.843Z,997.39
2018-11-11T04:07:23.833Z,997.33
2018-11-11T04:08:23.842Z,997.39
2018-11-11T04:09:23.814Z,997.39
2018-11-11T04:10:23.843Z,997.36
2018-11-11T04:11:23.800Z,997.42
2018-11-11T04:12:23.803Z,997.31
2018-11-11T04:13:23.775Z,997.43
2018-11-11T04:14:23.778Z,997.46
2018-11-11T04:15:23.839Z,997.38
2018-11-11T04:16:23.775Z,997.40
2018-11-11T04:17:23.744Z,997.44
2018-11-11T04:18:23.752Z,997.42
2018-11-11T04:19:23.729Z,997.45
2018-11-11T04:20:23.751Z,997.44
2018-11-11T04:21:23.723Z,997.50
2018-11-11T04:22:23.729Z,997.42
2018-11-11T04:23:23.700Z,997.45
2018-11-11T04:24:23.688Z,997.42
2018-11-11T04:25:23.694Z,997.40
2018-11-11T04:26:23.670Z,997.40
2018-11-11T04:27:23.662Z,997.40
2018-11-11T04:28:23.672Z,997.51
2018-11-11T04:29:23.647Z,997.39
2018-11-11T04:30:23.640Z,997.44
2018-11-11T04:31:23.638Z,997.49
2018-11-11T04:32:23.632Z,997.49
2018-11-11T04:33:23.645Z,997.55
2018-11-11T04:34:23.611Z,997.53
2018-11-11T04:35:23.602Z,997.58
2018-11-11T04:36:23.620Z,997.57
2018-11-11T04:37:23.606Z,997.65
2018-11-11T04:38:23.581Z,997.63
2018-11-11T04:39:23.666Z,997.58
2018-11-11T04:40:23.556Z,997.62
2018-11-11T04:41:23.543Z,997.58
2018-11-11T04:42:23.539Z,997.60
2018-11-11T04:43:23.541Z,997.53
2018-11-11T04:44:23.524Z,997.44
2018-11-11T04:45:23.526Z,997.43
2018-11-11T04:46:23.525Z,997.42
2018-11-11T04:47:23.498Z,997.45
2018-11-11T04:48:23.494Z,997.42
2018-11-11T04:49:23.490Z,997.37
2018-11-11T04:50:23.477Z,997.36
2018-11-11T04:51:23.486Z,997.40
2018-11-11T04:52:23.465Z,997.38
2018-11-11T04:53:23.450Z,997.42
2018-11-11T04:54:23.468Z,997.33
2018-11-11T04:55:23.437Z,997.39
2018-11-11T04:56:23.450Z,997.36
2018-11-11T04:57:23.448Z,997.42
2018-11-11T04:58:23.440Z,997.50
2018-11-11T04:59:23.444Z,997.50
2018-11-11T05:00:44.407Z,997.51
2018-11-11T05:01:23.473Z,997.49
2018-11-11T05:02:23.372Z,997.51
2018-11-11T05:03:23.395Z,997.48
2018-11-11T05:04:23.392Z,997.52
2018-11-11T05:05:23.375Z,997.58
2018-11-11T05:06:23.343Z,997.52
2018-11-11T05:07:23.332Z,997.49
2018-11-11T05:08:23.324Z,997.60
2018-11-11T05:09:23.319Z,997.62
2018-11-11T05:10:23.317Z,997.55
2018-11-11T05:11:23.295Z,997.54
2018-11-11T05:12:23.302Z,997.55
2018-11-11T05:13:23.283Z,997.50
2018-11-11T05:14:23.272Z,997.55
2018-11-11T05:15:23.299Z,997.57
2018-11-11T05:16:23.256Z,997.49
2018-11-11T05:17:23.253Z,997.58
2018-11-11T05:18:23.267Z,997.50
2018-11-11T05:19:23.267Z,997.54
2018-11-11T05:20:23.222Z,997.54
2018-11-11T05:21:23.213Z,997.51
2018-11-11T05:22:23.213Z,997.52
2018-11-11T05:23:23.201Z,997.53
2018-11-11T05:24:23.193Z,997.49
2018-11-11T05:25:23.183Z,997.61
2018-11-11T05:26:23.222Z,997.56
2018-11-11T05:27:23.165Z,997.56
2018-11-11T05:28:23.155Z,997.53
2018-11-11T05:29:23.190Z,997.62
2018-11-11T05:30:23.147Z,997.57
2018-11-11T05:31:23.216Z,997.63
2018-11-11T05:32:23.125Z,997.58
2018-11-11T05:33:23.123Z,997.65
2018-11-11T05:34:23.188Z,997.66
2018-11-11T05:35:23.096Z,997.65
2018-11-11T05:36:23.135Z,997.64
2018-11-11T05:37:23.096Z,997.70
2018-11-11T05:38:23.111Z,997.70
2018-11-11T05:39:23.076Z,997.70
2018-11-11T05:40:23.062Z,997.73
2018-11-11T05:41:23.049Z,997.59
2018-11-11T05:42:23.039Z,997.59
2018-11-11T05:43:23.043Z,997.60
2018-11-11T05:44:23.029Z,997.67
2018-11-11T05:45:23.051Z,997.71
2018-11-11T05:46:23.022Z,997.69
2018-11-11T05:47:23.003Z,997.76
2018-11-11T05:48:22.994Z,997.79
2018-11-11T05:49:22.984Z,997.77
2018-11-11T05:50:22.983Z,997.81
2018-11-11T05:51:22.992Z,997.77
2018-11-11T05:52:22.994Z,997.77
2018-11-11T05:53:22.985Z,997.77
2018-11-11T05:54:22.942Z,997.78
2018-11-11T05:55:22.960Z,997.78
2018-11-11T05:56:22.962Z,997.79
2018-11-11T05:57:22.967Z,997.81
2018-11-11T05:58:22.922Z,997.90
2018-11-11T05:59:22.936Z,997.84
2018-11-11T06:00:22.926Z,997.79
2018-11-11T06:01:22.887Z,997.77
2018-11-11T06:02:22.920Z,997.71
2018-11-11T06:03:22.869Z,997.89
2018-11-11T06:04:22.907Z,997.84
2018-11-11T06:05:22.855Z,997.79
2018-11-11T06:06:22.870Z,997.75
2018-11-11T06:07:22.842Z,997.76
2018-11-11T06:08:22.829Z,997.76
2018-11-11T06:09:22.840Z,997.84
2018-11-11T06:10:22.822Z,997.78
2018-11-11T06:11:22.824Z,997.81
2018-11-11T06:12:22.811Z,997.80
2018-11-11T06:13:22.929Z,997.77
2018-11-11T06:14:22.845Z,997.78
2018-11-11T06:15:22.773Z,997.86
2018-11-11T06:16:22.766Z,997.87
2018-11-11T06:17:22.756Z,997.81
2018-11-11T06:18:22.749Z,997.86
2018-11-11T06:19:22.781Z,997.87
2018-11-11T06:20:22.732Z,997.85
2018-11-11T06:21:22.723Z,997.82
2018-11-11T06:22:22.714Z,997.83
2018-11-11T06:23:22.700Z,997.87
2018-11-11T06:24:22.712Z,997.78
2018-11-11T06:25:22.692Z,997.81
2018-11-11T06:26:22.703Z,997.81
2018-11-11T06:27:22.723Z,997.76
2018-11-11T06:28:22.665Z,997.84
2018-11-11T06:29:23.331Z,997.80
2018-11-11T06:30:22.644Z,997.83
2018-11-11T06:31:22.664Z,997.80
2018-11-11T06:32:22.634Z,997.87
2018-11-11T06:33:22.644Z,997.92
2018-11-11T06:34:22.645Z,997.84
2018-11-11T06:35:22.607Z,997.83
2018-11-11T06:36:22.602Z,997.88
2018-11-11T06:37:22.612Z,997.85
2018-11-11T06:38:22.616Z,997.83
2018-11-11T06:39:22.577Z,997.84
2018-11-11T06:40:22.601Z,997.95
2018-11-11T06:41:22.563Z,998.17
2018-11-11T06:42:22.548Z,998.00
2018-11-11T06:43:22.538Z,997.86
2018-11-11T06:44:22.531Z,997.95
2018-11-11T06:45:22.559Z,997.95
2018-11-11T06:46:22.548Z,997.90
2018-11-11T06:47:22.506Z,997.91
2018-11-11T06:48:22.497Z,997.93
2018-11-11T06:49:22.490Z,997.93
2018-11-11T06:50:22.496Z,997.92
2018-11-11T06:51:22.502Z,997.95
2018-11-11T06:52:22.482Z,997.99
2018-11-11T06:53:22.474Z,998.03
2018-11-11T06:54:22.454Z,997.98
2018-11-11T06:55:22.519Z,998.00
2018-11-11T06:56:22.432Z,998.01
2018-11-11T06:57:22.430Z,998.05
2018-11-11T06:58:22.448Z,998.06
2018-11-11T06:59:22.407Z,998.00
2018-11-11T07:00:22.422Z,998.04
2018-11-11T07:01:22.390Z,998.15
2018-11-11T07:02:22.386Z,998.07
2018-11-11T07:03:22.372Z,998.11
2018-11-11T07:04:22.362Z,998.12
2018-11-11T07:05:22.367Z,998.10
2018-11-11T07:06:22.356Z,998.10
2018-11-11T07:07:22.375Z,998.10
2018-11-11T07:08:22.358Z,998.17
2018-11-11T07:09:22.333Z,998.20
2018-11-11T07:10:22.318Z,998.07
2018-11-11T07:11:22.308Z,998.10
2018-11-11T07:12:22.302Z,998.03
2018-11-11T07:13:22.314Z,998.17
2018-11-11T07:14:22.318Z,998.06
2018-11-11T07:15:22.293Z,998.07
2018-11-11T07:16:22.276Z,998.13
2018-11-11T07:17:22.264Z,998.12
2018-11-11T07:18:22.250Z,998.19
2018-11-11T07:19:22.246Z,998.09
2018-11-11T07:20:22.241Z,998.16
2018-11-11T07:21:22.231Z,998.18
2018-11-11T07:22:22.239Z,998.20
2018-11-11T07:23:22.255Z,998.15
2018-11-11T07:24:22.210Z,998.19
2018-11-11T07:25:22.188Z,998.25
2018-11-11T07:26:22.200Z,998.16
2018-11-11T07:27:22.178Z,998.20
2018-11-11T07:28:22.170Z,998.16
2018-11-11T07:29:22.158Z,998.20
2018-11-11T07:30:22.149Z,998.19
2018-11-11T07:31:22.163Z,998.23
2018-11-11T07:32:22.129Z,998.31
2018-11-11T07:33:22.125Z,998.27
2018-11-11T07:34:22.136Z,998.25
2018-11-11T07:35:22.106Z,998.39
2018-11-11T07:36:22.103Z,998.28
2018-11-11T07:37:22.091Z,998.37
2018-11-11T07:38:22.079Z,998.34
2018-11-11T07:39:22.072Z,998.34
2018-11-11T07:40:22.071Z,998.34
2018-11-11T07:41:22.079Z,998.37
2018-11-11T07:42:22.084Z,998.36
2018-11-11T07:43:22.050Z,998.37
2018-11-11T07:44:22.036Z,998.36
2018-11-11T07:45:22.022Z,998.41
2018-11-11T07:46:22.026Z,998.41
2018-11-11T07:47:22.017Z,998.53
2018-11-11T07:48:21.998Z,998.45
2018-11-11T07:49:21.998Z,998.49
2018-11-11T07:50:21.986Z,998.47
2018-11-11T07:51:21.971Z,998.58
2018-11-11T07:52:21.961Z,998.58
2018-11-11T07:53:21.963Z,998.64
2018-11-11T07:54:21.956Z,998.56
2018-11-11T07:55:21.950Z,998.56
2018-11-11T07:56:21.972Z,998.52
2018-11-11T07:57:21.923Z,998.49
2018-11-11T07:58:21.942Z,998.51
2018-11-11T07:59:21.907Z,998.49
2018-11-11T08:00:21.912Z,998.41
2018-11-11T08:01:21.904Z,998.47
2018-11-11T08:02:21.882Z,998.48
2018-11-11T08:03:21.876Z,998.56
2018-11-11T08:04:21.861Z,998.61
2018-11-11T08:05:21.853Z,998.56
2018-11-11T08:06:21.853Z,998.55
2018-11-11T08:07:21.842Z,998.60
2018-11-11T08:08:21.846Z,998.64
2018-11-11T08:09:21.821Z,998.56
2018-11-11T08:10:21.824Z,998.56
2018-11-11T08:11:21.807Z,998.60
2018-11-11T08:12:21.800Z,998.67
2018-11-11T08:13:21.800Z,998.65
2018-11-11T08:14:21.789Z,998.70
2018-11-11T08:15:21.811Z,998.66
2018-11-11T08:16:21.768Z,998.69
2018-11-11T08:17:21.756Z,998.68
2018-11-11T08:18:22.306Z,998.70
2018-11-11T08:19:21.736Z,998.69
2018-11-11T08:20:21.747Z,998.75
2018-11-11T08:21:21.757Z,998.77
2018-11-11T08:22:21.718Z,998.70
2018-11-11T08:23:21.702Z,998.70
2018-11-11T08:24:21.696Z,998.68
2018-11-11T08:25:21.753Z,998.80
2018-11-11T08:26:21.690Z,998.71
2018-11-11T08:27:21.694Z,998.83
2018-11-11T08:28:21.698Z,998.64
2018-11-11T08:29:21.661Z,998.72
2018-11-11T08:30:21.676Z,998.67
2018-11-11T08:31:21.640Z,998.67
2018-11-11T08:32:21.657Z,998.80
2018-11-11T08:33:21.631Z,998.72
2018-11-11T08:34:21.635Z,998.81
2018-11-11T08:35:21.623Z,998.77
2018-11-11T08:36:21.608Z,998.77
2018-11-11T08:37:21.609Z,998.77
2018-11-11T08:38:21.591Z,998.81
2018-11-11T08:39:21.581Z,998.79
2018-11-11T08:40:21.604Z,998.82
2018-11-11T08:41:21.615Z,998.79
2018-11-11T08:42:21.567Z,998.91
2018-11-11T08:43:21.553Z,998.85
2018-11-11T08:44:21.541Z,998.92
2018-11-11T08:45:21.534Z,998.93
2018-11-11T08:46:21.533Z,998.86
2018-11-11T08:47:21.524Z,998.93
2018-11-11T08:48:21.635Z,998.88
2018-11-11T08:49:21.516Z,998.88
2018-11-11T08:50:21.496Z,998.89
2018-11-11T08:51:21.501Z,999.08
2018-11-11T08:52:21.483Z,998.96
2018-11-11T08:53:21.478Z,999.00
2018-11-11T08:54:21.462Z,999.04
2018-11-11T08:55:21.477Z,998.97
2018-11-11T08:56:21.466Z,998.98
2018-11-11T08:57:21.483Z,998.93
2018-11-11T08:58:21.443Z,998.96
2018-11-11T08:59:21.431Z,998.99
2018-11-11T09:00:21.425Z,998.92
2018-11-11T09:01:21.422Z,999.05
2018-11-11T09:02:21.401Z,999.03
2018-11-11T09:03:21.415Z,999.14
2018-11-11T09:04:21.390Z,998.99
2018-11-11T09:05:21.383Z,999.01
2018-11-11T09:06:21.378Z,999.00
2018-11-11T09:07:21.371Z,999.05
2018-11-11T09:08:21.370Z,999.03
2018-11-11T09:09:21.364Z,999.16
2018-11-11T09:10:21.353Z,999.15
2018-11-11T09:11:21.383Z,999.23
2018-11-11T09:12:21.330Z,999.14
2018-11-11T09:13:21.331Z,999.18
2018-11-11T09:14:21.321Z,999.15
2018-11-11T09:15:21.305Z,999.10
2018-11-11T09:16:21.305Z,999.19
2018-11-11T09:17:21.372Z,999.16
2018-11-11T09:18:21.287Z,999.19
2018-11-11T09:19:21.290Z,999.41
2018-11-11T09:20:21.295Z,999.27
2018-11-11T09:21:21.313Z,999.30
2018-11-11T09:22:21.274Z,999.19
2018-11-11T09:23:21.256Z,999.24
2018-11-11T09:24:21.364Z,999.14
2018-11-11T09:25:21.247Z,999.28
2018-11-11T09:26:21.233Z,999.34
2018-11-11T09:27:21.247Z,999.33
2018-11-11T09:28:21.221Z,999.36
2018-11-11T09:29:21.262Z,999.31
2018-11-11T09:30:21.279Z,999.27
2018-11-11T09:31:21.230Z,999.32
2018-11-11T09:32:21.195Z,999.70
2018-11-11T09:33:21.182Z,999.40
2018-11-11T09:34:21.184Z,999.48
2018-11-11T09:35:21.230Z,999.48
2018-11-11T09:36:21.160Z,999.44
2018-11-11T09:37:21.152Z,999.43
2018-11-11T09:38:21.149Z,999.43
2018-11-11T09:39:21.156Z,999.45
2018-11-11T09:40:21.136Z,999.47
2018-11-11T09:41:21.163Z,999.46
2018-11-11T09:42:21.129Z,999.44
2018-11-11T09:43:21.105Z,999.45
2018-11-11T09:44:21.098Z,999.38
2018-11-11T09:45:21.092Z,999.44
2018-11-11T09:46:21.100Z,999.39
2018-11-11T09:47:21.123Z,999.46
2018-11-11T09:48:21.081Z,999.42
2018-11-11T09:49:21.065Z,999.50
2018-11-11T09:50:21.056Z,999.58
2018-11-11T09:51:21.060Z,999.45
2018-11-11T09:52:21.046Z,999.48
2018-11-11T09:53:21.055Z,999.53
2018-11-11T09:54:21.052Z,999.56
2018-11-11T09:55:21.018Z,999.52
2018-11-11T09:56:21.009Z,999.55
2018-11-11T09:57:21.009Z,999.55
2018-11-11T09:58:21.003Z,999.51
2018-11-11T09:59:21.000Z,999.53
2018-11-11T10:00:22.870Z,999.64
2018-11-11T10:01:20.988Z,999.59
2018-11-11T10:02:20.994Z,999.61
2018-11-11T10:03:20.966Z,999.54
2018-11-11T10:04:20.958Z,999.58
2018-11-11T10:05:20.982Z,999.48
2018-11-11T10:06:20.971Z,999.45
2018-11-11T10:07:20.955Z,999.42
2018-11-11T10:08:20.952Z,999.38
2018-11-11T10:09:20.920Z,999.38
2018-11-11T10:10:21.106Z,999.32
2018-11-11T10:11:20.902Z,999.23
2018-11-11T10:12:21.020Z,999.35
2018-11-11T10:13:20.900Z,999.32
2018-11-11T10:14:20.907Z,999.31
2018-11-11T10:15:20.904Z,999.39
2018-11-11T10:16:20.910Z,999.35
2018-11-11T10:17:20.927Z,999.37
2018-11-11T10:18:20.858Z,999.42
2018-11-11T10:28:26.659Z,999.49
2018-11-11T10:29:24.030Z,999.40
2018-11-11T10:31:18.063Z,999.51
2018-11-11T10:32:17.777Z,999.56
2018-11-11T10:34:12.267Z,999.53
2018-11-11T10:35:11.324Z,999.53
2018-11-11T10:37:05.632Z,999.55
2018-11-11T10:38:04.904Z,999.61
2018-11-11T10:39:58.897Z,999.59
2018-11-11T10:40:58.488Z,999.47
2018-11-11T10:42:52.563Z,999.53
2018-11-11T10:43:52.269Z,999.63
2018-11-11T10:46:06.877Z,999.53
2018-11-11T10:47:48.035Z,999.57
2018-11-11T10:48:40.179Z,999.47
2018-11-11T10:51:01.217Z,999.48
2018-11-11T10:51:34.278Z,999.44
2018-11-11T10:53:27.601Z,999.42
2018-11-11T10:54:27.688Z,999.41
2018-11-11T10:56:24.186Z,999.43
2018-11-11T10:57:21.230Z,999.38
2018-11-11T10:59:15.394Z,999.38
2018-11-11T11:01:34.430Z,999.45
2018-11-11T11:02:29.437Z,999.52
2018-11-11T11:03:28.651Z,999.54
2018-11-11T11:04:30.568Z,999.50
2018-11-11T11:05:28.699Z,999.48
2018-11-11T11:06:28.609Z,999.49
2018-11-11T11:07:28.576Z,999.44
2018-11-11T11:08:51.299Z,999.55
2018-11-11T11:09:28.565Z,999.69
2018-11-11T11:10:28.553Z,999.54
2018-11-11T11:11:28.545Z,999.61
2018-11-11T11:12:28.769Z,999.60
2018-11-11T11:13:28.692Z,999.65
2018-11-11T11:14:28.528Z,999.68
2018-11-11T11:15:28.520Z,999.55
2018-11-11T11:16:28.517Z,999.68
2018-11-11T11:17:28.545Z,999.67
2018-11-11T11:18:28.533Z,999.72
2018-11-11T11:19:28.500Z,999.75
2018-11-11T11:20:28.499Z,999.78
2018-11-11T11:21:49.504Z,999.90
2018-11-11T11:22:28.481Z,999.89
2018-11-11T11:23:29.295Z,999.97
2018-11-11T11:24:28.469Z,999.92
2018-11-11T11:25:28.494Z,999.98
2018-11-11T11:26:28.466Z,1000.00
2018-11-11T11:27:28.452Z,1000.00
2018-11-11T11:28:28.504Z,1000.20
2018-11-11T11:29:28.465Z,1000.06
2018-11-11T11:30:28.426Z,1000.01
2018-11-11T11:31:28.473Z,1000.11
2018-11-11T11:32:28.421Z,1000.07
2018-11-11T11:33:28.414Z,1000.05
2018-11-11T11:34:28.430Z,1000.12
2018-11-11T11:35:28.534Z,1000.09
2018-11-11T11:36:28.393Z,1000.13
2018-11-11T11:37:28.430Z,1000.13
2018-11-11T11:38:28.457Z,1000.19
2018-11-11T11:39:28.371Z,1000.12
2018-11-11T11:40:28.373Z,1000.08
2018-11-11T11:41:28.409Z,1000.21
2018-11-11T11:42:28.370Z,1000.07
2018-11-11T11:43:28.360Z,1000.00
2018-11-11T11:44:28.366Z,1000.16
2018-11-11T11:45:28.373Z,1000.14
2018-11-11T11:46:28.319Z,1000.07
2018-11-11T11:48:00.290Z,1000.07
2018-11-11T11:48:28.300Z,1000.13
2018-11-11T11:49:28.314Z,1000.15
2018-11-11T11:50:28.365Z,1000.14
2018-11-11T11:51:28.324Z,1000.20
2018-11-11T11:52:28.374Z,1000.20
2018-11-11T11:53:28.274Z,1000.25
2018-11-11T11:54:28.272Z,1000.23
2018-11-11T11:55:28.256Z,1000.23
2018-11-11T11:56:28.272Z,1000.27
2018-11-11T11:57:28.806Z,1000.25
2018-11-11T11:58:28.271Z,1000.24
2018-11-11T11:59:28.277Z,1000.25
2018-11-11T12:00:28.296Z,1000.30
2018-11-11T12:01:28.236Z,1000.31
2018-11-11T12:02:28.220Z,1000.27
2018-11-11T12:03:28.228Z,1000.36
2018-11-11T12:04:28.215Z,1000.32
2018-11-11T12:05:28.206Z,1000.36
2018-11-11T12:06:28.189Z,1000.40
2018-11-11T12:07:28.212Z,1000.28
2018-11-11T12:08:28.270Z,1000.31
2018-11-11T12:09:28.169Z,1000.28
2018-11-11T12:10:32.303Z,1000.27
2018-11-11T12:11:28.171Z,1000.21
2018-11-11T12:12:28.802Z,1000.30
2018-11-11T12:13:28.208Z,1000.13
2018-11-11T12:14:28.164Z,1000.18
2018-11-11T12:15:28.193Z,1000.14
2018-11-11T12:16:28.240Z,1000.15
2018-11-11T12:17:28.129Z,1000.18
2018-11-11T12:18:38.830Z,1000.16
2018-11-11T12:19:28.133Z,1000.20
2018-11-11T12:20:28.132Z,1000.09
2018-11-11T12:21:28.141Z,1000.13
2018-11-11T12:22:28.098Z,1000.20
2018-11-11T12:23:28.085Z,1000.30
2018-11-11T12:24:28.072Z,1000.29
2018-11-11T12:25:28.065Z,1000.27
2018-11-11T12:26:28.068Z,1000.34
2018-11-11T12:27:28.069Z,1000.28
2018-11-11T12:28:28.046Z,1000.25
2018-11-11T12:29:28.072Z,1000.31
2018-11-11T12:30:28.125Z,1000.29
2018-11-11T12:31:28.033Z,1000.25
2018-11-11T12:32:28.014Z,1000.21
2018-11-11T12:33:28.020Z,1000.23
2018-11-11T12:34:28.043Z,1000.32
2018-11-11T12:35:28.005Z,1000.20
2018-11-11T12:36:27.988Z,1000.18
2018-11-11T12:37:28.833Z,1000.17
2018-11-11T12:38:27.987Z,1000.16
2018-11-11T12:39:28.049Z,1000.15
2018-11-11T12:40:27.973Z,1000.12
2018-11-11T12:41:27.964Z,1000.22
2018-11-11T12:42:28.007Z,1000.18
2018-11-11T12:43:27.951Z,1000.25
2018-11-11T12:44:27.984Z,1000.19
2018-11-11T12:45:27.968Z,1000.20
2018-11-11T12:46:27.932Z,1000.23
2018-11-11T12:47:27.952Z,1000.22
2018-11-11T12:48:27.946Z,1000.17
2018-11-11T12:49:27.913Z,1000.16
2018-11-11T12:50:28.029Z,1000.22
2018-11-11T12:51:27.904Z,1000.10
2018-11-11T12:52:27.934Z,1000.12